Time;durP1;ratioP1;P1;durP2;ratioP2;P2;SDS_P1;SDS_P2;PMS_P1;PMS_P2;Temp;Humidity;BMP_temperature;BMP_pressure;BME280_temperature;BME280_humidity;BME280_pressure;Samples;Min_cycle;Max_cycle;Signal;HPM_P1;HPM_P2
2023/10/25 00:01:00;;;;;;;19.98;17.75;;;12.30;99.90;;;-141.84;100.00;119224.81;4997814;28;20254;-61
2023/10/25 00:03:28;;;;;;;21.63;17.48;;;12.30;99.90;;;-141.84;100.00;119224.81;5000589;28;20257;-61
2023/10/25 00:05:58;;;;;;;20.80;18.60;;;12.20;99.90;;;-141.84;100.00;119224.81;4995239;28;20192;-61
2023/10/25 00:08:26;;;;;;;20.00;17.90;;;12.20;99.90;;;-141.84;100.00;119224.81;4998921;28;20234;-61
2023/10/25 00:11:03;;;;;;;21.70;18.70;;;12.20;99.90;;;-141.84;100.00;119224.81;4997610;28;20227;-61
2023/10/25 00:13:32;;;;;;;20.23;17.55;;;12.20;99.90;;;-141.84;100.00;119224.81;4997141;28;20233;-62
2023/10/25 00:16:01;;;;;;;22.13;18.75;;;12.20;99.90;;;-141.84;100.00;119224.81;4996009;28;20310;-61
2023/10/25 00:18:31;;;;;;;21.47;18.13;;;12.20;99.90;;;-141.84;100.00;119224.81;5001501;28;20202;-60
2023/10/25 00:21:00;;;;;;;18.60;16.70;;;12.20;99.90;;;-141.84;100.00;119224.81;4992409;28;20287;-61
2023/10/25 00:23:28;;;;;;;18.88;16.88;;;12.20;99.90;;;-141.84;100.00;119224.81;5002441;28;20265;-61
2023/10/25 00:25:56;;;;;;;19.17;16.58;;;12.10;99.90;;;-141.84;100.00;119224.81;4995059;28;20234;-61
2023/10/25 00:28:25;;;;;;;19.75;16.60;;;12.00;99.90;;;-141.84;100.00;119224.81;4995965;28;20204;-61
2023/10/25 00:30:53;;;;;;;19.95;16.50;;;11.90;99.90;;;-141.84;100.00;119224.81;4997742;28;20234;-61
2023/10/25 00:33:21;;;;;;;18.27;16.35;;;11.90;99.90;;;-141.84;100.00;119224.81;4998916;28;20234;-62
2023/10/25 00:35:50;;;;;;;19.47;16.83;;;11.90;99.90;;;-141.84;100.00;119224.81;4997345;28;20255;-62
2023/10/25 00:38:20;;;;;;;21.52;16.77;;;11.90;99.90;;;-141.84;100.00;119224.81;4996545;28;20285;-63
2023/10/25 00:40:48;;;;;;;20.87;17.67;;;11.80;99.90;;;-141.84;100.00;119224.81;4997455;28;20290;-60
2023/10/25 00:43:19;;;;;;;19.20;16.43;;;11.80;99.90;;;-141.84;100.00;119224.81;4997995;28;20223;-62
2023/10/25 00:46:12;;;;;;;18.20;16.20;;;11.80;99.90;;;-141.84;100.00;119224.81;4997355;28;20194;-62
2023/10/25 00:48:44;;;;;;;18.17;16.27;;;11.80;99.90;;;-141.84;100.00;119224.81;4991333;28;20203;-62
2023/10/25 00:51:15;;;;;;;17.73;15.40;;;11.70;99.90;;;-141.84;100.00;119224.81;4994538;28;20198;-61
2023/10/25 00:53:50;;;;;;;17.67;15.88;;;11.60;99.90;;;-141.84;100.00;119224.81;4995492;28;20774;-62
2023/10/25 00:56:22;;;;;;;17.03;15.23;;;11.50;99.90;;;-141.84;100.00;119224.81;4994401;28;20294;-62
2023/10/25 00:58:54;;;;;;;19.70;16.33;;;11.50;99.90;;;-141.84;100.00;119224.81;4990650;28;20211;-61
2023/10/25 01:01:24;;;;;;;18.03;15.70;;;11.50;99.90;;;-141.84;100.00;119224.81;4994276;28;20211;-62
2023/10/25 01:03:53;;;;;;;17.20;15.10;;;11.50;99.90;;;-141.84;100.00;119224.81;4998967;28;20212;-61
2023/10/25 01:06:22;;;;;;;17.93;15.33;;;11.40;99.90;;;-141.84;100.00;119224.81;4991174;28;20199;-62
2023/10/25 01:08:53;;;;;;;19.10;15.40;;;11.40;99.90;;;-141.84;100.00;119224.81;5000153;28;20401;-61
2023/10/25 01:11:21;;;;;;;18.60;15.37;;;11.40;99.90;;;-141.84;100.00;119224.81;4994574;28;20203;-62
2023/10/25 01:13:50;;;;;;;18.13;15.47;;;11.30;99.90;;;-141.84;100.00;119224.81;4993325;28;20203;-61
2023/10/25 01:16:19;;;;;;;22.70;19.87;;;11.30;99.90;;;-141.84;100.00;119224.81;4998108;28;20697;-61
2023/10/25 01:18:47;;;;;;;23.23;19.43;;;11.30;99.90;;;-141.84;100.00;119224.81;5001271;28;20195;-61
2023/10/25 01:21:17;;;;;;;23.00;20.47;;;11.40;99.90;;;-141.84;100.00;119224.81;4997690;28;20282;-63
2023/10/25 01:23:52;;;;;;;22.77;19.83;;;11.40;99.90;;;-141.84;100.00;119224.81;4996362;28;20294;-61
2023/10/25 01:26:22;;;;;;;20.45;17.63;;;11.50;99.90;;;-141.84;100.00;119224.81;4997784;28;20242;-62
2023/10/25 01:28:51;;;;;;;19.30;17.30;;;11.50;99.90;;;-141.84;100.00;119224.81;4996381;28;20203;-62
2023/10/25 01:31:19;;;;;;;18.83;15.87;;;11.50;99.90;;;-141.84;100.00;119224.81;4995116;28;20291;-62
2023/10/25 01:33:51;;;;;;;17.20;14.67;;;11.50;99.90;;;-141.84;100.00;119224.81;5000551;28;20249;-62
2023/10/25 01:36:19;;;;;;;15.90;14.03;;;11.50;99.90;;;-141.84;100.00;119224.81;4996604;28;20204;-62
2023/10/25 01:38:49;;;;;;;14.97;13.37;;;11.50;99.90;;;-141.84;100.00;119224.81;4998556;28;20648;-62
2023/10/25 01:41:17;;;;;;;15.52;12.50;;;11.50;99.90;;;-141.84;100.00;119224.81;4996917;28;20349;-61
2023/10/25 01:43:46;;;;;;;18.75;12.98;;;11.50;99.90;;;-141.84;100.00;119224.81;4996546;28;20232;-62
2023/10/25 01:46:14;;;;;;;15.65;13.45;;;11.50;99.90;;;-141.84;100.00;118156.06;4997421;28;20783;-61
2023/10/25 01:48:44;;;;;;;14.60;13.10;;;11.50;99.90;;;-141.84;100.00;115757.06;4999287;28;20303;-60
2023/10/25 01:51:12;;;;;;;15.02;12.93;;;11.50;99.90;;;-141.84;100.00;115224.16;4998156;28;20226;-63
2023/10/25 01:53:41;;;;;;;13.10;11.70;;;11.50;99.90;;;-141.84;100.00;116023.56;5000785;28;20330;-61
2023/10/25 01:56:10;;;;;;;14.03;12.53;;;11.50;99.90;;;-141.84;100.00;117356.25;4997870;28;20329;-62
2023/10/25 01:58:38;;;;;;;18.63;12.82;;;11.50;99.90;;;-141.84;100.00;117356.25;4993739;28;20298;-60
2023/10/25 02:01:07;;;;;;;13.35;12.07;;;11.50;99.90;;;-141.84;100.00;116556.59;5001400;28;20295;-61
2023/10/25 02:03:36;;;;;;;13.43;12.03;;;11.50;99.90;;;-141.84;100.00;117089.69;4998407;28;20206;-62
2023/10/25 02:06:14;;;;;;;13.17;11.87;;;11.50;99.90;;;-141.84;100.00;117622.84;5001131;28;20199;-60
2023/10/25 02:08:43;;;;;;;14.43;12.82;;;11.40;99.90;;;-141.84;100.00;118156.06;5001011;28;20203;-61
2023/10/25 02:11:12;;;;;;;13.85;11.88;;;11.50;99.90;;;-141.84;100.00;118156.06;5000810;28;20202;-62
2023/10/25 02:13:41;;;;;;;13.67;11.90;;;11.50;99.90;;;-141.84;100.00;117889.44;4997441;28;20257;-62
2023/10/25 02:16:15;;;;;;;14.05;12.65;;;11.40;99.90;;;-141.84;100.00;116023.56;5001898;28;20258;-61
2023/10/25 02:18:43;;;;;;;13.82;11.82;;;11.50;99.90;;;-141.84;100.00;112826.88;4992806;28;20198;-62
2023/10/25 02:21:12;;;;;;;13.10;11.80;;;11.40;99.90;;;-141.84;100.00;107504.66;5003768;28;20207;-62
2023/10/25 02:23:39;;;;;;;14.00;11.80;;;11.50;99.90;;;-141.84;100.00;108568.56;4997814;28;20714;-62
2023/10/25 02:26:08;;;;;;;11.80;10.60;;;11.40;99.90;;;-141.84;100.00;109366.66;4996550;28;20296;-62
2023/10/25 02:28:37;;;;;;;12.93;10.73;;;11.40;99.90;;;-141.84;100.00;111495.69;4999184;28;20630;-61
2023/10/25 02:31:05;;;;;;;12.63;10.67;;;11.40;99.90;;;-141.84;100.00;113625.81;4997750;28;20276;-62
2023/10/25 02:33:36;;;;;;;12.60;10.30;;;11.40;99.90;;;-141.84;100.00;114424.91;5000930;28;20209;-62
2023/10/25 02:36:05;;;;;;;11.60;10.40;;;11.40;99.90;;;-141.84;100.00;113093.19;4997633;28;20235;-62
2023/10/25 02:38:33;;;;;;;11.03;9.93;;;11.30;99.90;;;-141.84;100.00;111761.88;4997860;28;20238;-61
2023/10/25 02:41:01;;;;;;;11.23;10.13;;;11.30;99.90;;;-141.84;100.00;110697.16;4997111;28;20256;-61
2023/10/25 02:43:30;;;;;;;10.27;8.77;;;11.20;99.90;;;-141.84;100.00;110164.91;5000714;28;20238;-61
2023/10/25 02:46:03;;;;;;;9.77;8.77;;;11.20;99.90;;;-141.84;100.00;109632.72;4994492;28;20202;-63
2023/10/25 02:48:32;;;;;;;9.67;8.77;;;11.10;99.90;;;-141.84;100.00;111761.88;5000476;28;20263;-62
2023/10/25 02:51:01;;;;;;;9.73;8.73;;;11.00;99.90;;;-141.84;100.00;112028.13;4997320;28;20614;-61
2023/10/25 02:53:29;;;;;;;10.10;9.10;;;10.90;99.90;;;-141.84;100.00;111495.69;5001152;28;20289;-62
2023/10/25 02:56:01;;;;;;;9.80;8.60;;;10.90;99.90;;;-141.84;100.00;112028.13;4995968;28;20667;-63
2023/10/25 02:58:29;;;;;;;9.00;8.17;;;10.80;99.90;;;-141.84;100.00;110963.31;4997724;28;20198;-62
2023/10/25 03:00:58;;;;;;;10.30;9.00;;;10.70;99.90;;;-141.84;100.00;112560.63;4999113;28;20231;-62
2023/10/25 03:03:31;;;;;;;10.50;9.37;;;10.70;99.90;;;-141.84;100.00;114424.91;5001574;28;20195;-62
2023/10/25 03:06:00;;;;;;;10.73;9.40;;;10.60;99.90;;;-141.84;100.00;115224.16;4999116;28;20202;-62
2023/10/25 03:08:29;;;;;;;10.53;9.13;;;10.60;99.90;;;-141.84;100.00;114691.31;4997387;28;20817;-67
2023/10/25 03:10:57;;;;;;;10.00;9.00;;;10.60;99.90;;;-141.84;100.00;113359.50;4998560;28;20203;-65
2023/10/25 03:13:25;;;;;;;11.00;8.80;;;10.70;99.90;;;-141.84;100.00;111761.88;5000013;28;20741;-65
2023/10/25 03:15:53;;;;;;;9.87;8.87;;;10.60;99.90;;;-141.84;100.00;110963.31;4998686;28;20580;-67
2023/10/25 03:18:22;;;;;;;9.70;8.63;;;10.60;99.90;;;-141.84;100.00;111229.50;4990903;28;20203;-66
2023/10/25 03:20:51;;;;;;;9.87;8.87;;;10.50;99.90;;;-141.84;100.00;113093.19;5000334;28;20289;-66
2023/10/25 03:23:20;;;;;;;9.10;8.20;;;10.40;99.90;;;-141.84;100.00;114957.72;4997212;28;20730;-67
2023/10/25 03:25:48;;;;;;;10.47;9.37;;;10.40;99.90;;;-141.84;100.00;116290.06;4996779;28;20203;-67
2023/10/25 03:28:16;;;;;;;9.63;8.40;;;10.30;99.90;;;-141.84;100.00;117356.25;4996208;28;20261;-66
2023/10/25 03:30:46;;;;;;;10.70;8.57;;;10.20;99.90;;;-141.84;100.00;117889.44;4999682;28;20616;-68
2023/10/25 03:33:14;;;;;;;10.33;8.80;;;10.10;99.90;;;-141.84;100.00;118689.38;4997573;28;20199;-66
2023/10/25 03:35:42;;;;;;;11.63;9.90;;;10.10;99.90;;;-141.84;100.00;119222.75;4997852;28;20204;-65
2023/10/25 03:38:12;;;;;;;15.23;10.60;;;10.00;99.90;;;-141.84;100.00;119224.81;4997607;28;20231;-66
2023/10/25 03:40:40;;;;;;;13.40;10.70;;;10.00;99.90;;;-141.84;100.00;119224.81;4996490;28;20239;-65
2023/10/25 03:43:08;;;;;;;11.80;10.43;;;9.90;99.90;;;-141.84;100.00;119224.81;4998724;28;20690;-65
2023/10/25 03:45:36;;;;;;;14.00;11.20;;;9.90;99.90;;;-141.84;100.00;119224.81;4997442;28;20718;-65
2023/10/25 03:48:05;;;;;;;14.73;12.53;;;9.90;99.90;;;-141.84;100.00;119224.81;4998600;28;20195;-64
2023/10/25 03:50:33;;;;;;;17.77;15.33;;;9.90;99.90;;;-141.84;100.00;119224.81;4998867;28;20757;-63
2023/10/25 03:53:01;;;;;;;16.87;14.60;;;9.90;99.90;;;-141.84;100.00;119224.81;4993455;28;20239;-64
2023/10/25 03:55:30;;;;;;;19.77;16.03;;;9.80;99.90;;;-141.84;100.00;119224.81;4992934;28;20287;-64
2023/10/25 03:57:59;;;;;;;17.97;15.57;;;9.80;99.90;;;-141.84;100.00;119224.81;4997592;28;20306;-64
2023/10/25 04:00:27;;;;;;;19.77;13.47;;;9.80;99.90;;;-141.84;100.00;119224.81;4990334;28;20342;-62
2023/10/25 04:02:56;;;;;;;16.47;14.10;;;9.80;99.90;;;-141.84;100.00;119224.81;4999504;28;20203;-63
2023/10/25 04:05:25;;;;;;;17.17;14.10;;;9.80;99.90;;;-141.84;100.00;119224.81;4997622;28;20294;-64
2023/10/25 04:07:53;;;;;;;17.13;13.33;;;9.80;99.90;;;-141.84;100.00;119224.81;4999611;28;20222;-63
2023/10/25 04:10:21;;;;;;;15.03;12.53;;;9.80;99.90;;;-141.84;100.00;119224.81;4995920;28;20234;-62
2023/10/25 04:12:51;;;;;;;16.57;13.73;;;9.80;99.90;;;-141.84;100.00;119224.81;4995276;28;20668;-64
2023/10/25 04:15:19;;;;;;;16.17;14.07;;;9.80;99.90;;;-141.84;100.00;119224.81;4999133;28;20659;-63
2023/10/25 04:17:47;;;;;;;17.73;14.60;;;9.70;99.90;;;-141.84;100.00;119224.81;4994685;28;20322;-62
2023/10/25 04:20:16;;;;;;;18.57;14.10;;;9.70;99.90;;;-141.84;100.00;119224.81;4995966;28;20286;-62
2023/10/25 04:22:44;;;;;;;17.33;14.10;;;9.80;99.90;;;-141.84;100.00;119224.81;5001703;28;20293;-63
2023/10/25 04:25:14;;;;;;;16.83;13.83;;;9.80;99.90;;;-141.84;100.00;119224.81;4996688;28;20210;-64
2023/10/25 04:27:42;;;;;;;17.50;14.60;;;9.70;99.90;;;-141.84;100.00;119224.81;4997077;28;20291;-63
2023/10/25 04:30:12;;;;;;;17.33;13.40;;;9.70;99.90;;;-141.84;100.00;119224.81;4995860;28;20211;-63
2023/10/25 04:32:40;;;;;;;16.77;13.93;;;9.70;99.90;;;-141.84;100.00;119224.81;4992147;28;20677;-63
2023/10/25 04:35:09;;;;;;;22.10;15.23;;;9.60;99.90;;;-141.84;100.00;119224.81;4998911;28;20593;-63
2023/10/25 04:37:37;;;;;;;17.30;14.20;;;9.60;99.90;;;-141.84;100.00;119224.81;5000533;28;20226;-63
2023/10/25 04:40:12;;;;;;;17.23;13.20;;;9.60;99.90;;;-141.84;100.00;119224.81;4996498;28;20258;-65
2023/10/25 04:42:40;;;;;;;17.70;14.70;;;9.60;99.90;;;-141.84;100.00;119224.81;4996596;28;20571;-63
2023/10/25 04:45:11;;;;;;;19.77;16.10;;;9.60;99.90;;;-141.84;100.00;119224.81;4995585;28;20203;-63
2023/10/25 04:47:39;;;;;;;20.30;16.53;;;9.60;99.90;;;-141.84;100.00;119224.81;4992569;28;20282;-63
2023/10/25 04:50:08;;;;;;;19.63;15.77;;;9.70;99.90;;;-141.84;100.00;119224.81;4992230;28;20213;-64
2023/10/25 04:52:36;;;;;;;21.73;17.83;;;9.70;99.90;;;-141.84;100.00;119224.81;4994853;28;20223;-63
2023/10/25 04:55:05;;;;;;;19.80;17.70;;;9.70;99.90;;;-141.84;100.00;119224.81;4992693;28;20758;-64
2023/10/25 04:57:34;;;;;;;19.17;16.23;;;9.70;99.90;;;-141.84;100.00;119224.81;5000014;28;20698;-63
2023/10/25 05:00:03;;;;;;;19.73;15.40;;;9.70;99.90;;;-141.84;100.00;119222.75;4995409;28;20195;-64
2023/10/25 05:02:34;;;;;;;17.20;14.43;;;9.70;99.90;;;-141.84;100.00;119222.75;4993421;28;20234;-63
2023/10/25 05:05:04;;;;;;;17.77;15.03;;;9.70;99.90;;;-141.84;100.00;119224.81;4997817;28;20738;-64
2023/10/25 05:07:33;;;;;;;15.97;13.97;;;9.60;99.90;;;-141.84;100.00;119224.81;4998915;28;20192;-63
2023/10/25 05:10:03;;;;;;;17.67;14.67;;;9.60;99.90;;;-141.84;100.00;119224.81;4991950;28;20243;-63
2023/10/25 05:12:38;;;;;;;21.03;17.50;;;9.60;99.90;;;-141.84;100.00;119224.81;4998201;28;20234;-63
2023/10/25 05:15:10;;;;;;;18.97;15.03;;;9.60;99.90;;;-141.84;100.00;119224.81;4997112;28;20274;-63
2023/10/25 05:17:41;;;;;;;17.07;14.10;;;9.70;99.90;;;-141.84;100.00;119224.81;5000843;28;20684;-63
2023/10/25 05:20:11;;;;;;;16.00;13.57;;;9.60;99.90;;;-141.84;100.00;119224.81;4997534;28;20682;-63
2023/10/25 05:22:42;;;;;;;18.47;15.10;;;9.60;99.90;;;-141.84;100.00;119224.81;4995108;28;20648;-64
2023/10/25 05:25:12;;;;;;;16.73;14.47;;;9.60;99.90;;;-141.84;100.00;119224.81;4997544;28;20211;-64
2023/10/25 05:27:41;;;;;;;19.13;14.77;;;9.60;99.90;;;-141.84;100.00;119224.81;5001279;28;20418;-64
2023/10/25 05:30:14;;;;;;;18.00;14.40;;;9.60;99.90;;;-141.84;100.00;119224.81;4995641;28;20205;-63
2023/10/25 05:32:46;;;;;;;17.57;14.07;;;9.60;99.90;;;-141.84;100.00;119224.81;4994004;28;20234;-64
2023/10/25 05:35:16;;;;;;;16.97;12.83;;;9.60;99.90;;;-141.84;100.00;119224.81;4993301;28;20215;-64
2023/10/25 05:37:45;;;;;;;18.90;13.37;;;9.60;99.90;;;-141.84;100.00;119224.81;4993010;28;20255;-64
2023/10/25 05:40:15;;;;;;;20.97;14.30;;;9.60;99.90;;;-141.84;100.00;118956.03;4987922;28;20663;-64
2023/10/25 05:42:48;;;;;;;14.57;12.90;;;9.60;99.90;;;-141.84;100.00;118422.72;4994480;28;20195;-63
2023/10/25 05:45:17;;;;;;;18.63;14.17;;;9.70;99.90;;;-141.84;100.00;118156.06;4994342;28;20188;-66
2023/10/25 05:47:47;;;;;;;16.13;13.07;;;9.70;99.90;;;-141.84;100.00;117089.69;4993226;28;20809;-64
2023/10/25 05:50:17;;;;;;;20.00;14.40;;;9.60;99.90;;;-141.84;100.00;117089.69;4993416;28;20196;-63
2023/10/25 05:52:46;;;;;;;20.23;15.37;;;9.60;99.90;;;-141.84;100.00;117089.69;4995739;28;20708;-64
2023/10/25 05:55:16;;;;;;;18.43;15.40;;;9.60;99.90;;;-141.84;100.00;117889.44;4994622;28;20250;-63
2023/10/25 05:57:46;;;;;;;19.70;15.13;;;9.60;99.90;;;-141.84;100.00;118689.38;4994591;28;20210;-63
2023/10/25 06:00:16;;;;;;;16.47;14.50;;;9.60;99.90;;;-141.84;100.00;118156.06;4999762;28;20261;-63
2023/10/25 06:02:49;;;;;;;15.63;12.83;;;9.60;99.90;;;-141.84;100.00;118422.72;4998608;28;20258;-63
2023/10/25 06:05:20;;;;;;;14.70;12.67;;;9.60;99.90;;;-141.84;100.00;118956.03;4996593;28;20203;-63
2023/10/25 06:07:49;;;;;;;17.10;14.17;;;9.50;99.90;;;-141.84;100.00;119224.81;4991961;28;20199;-63
2023/10/25 06:10:17;;;;;;;18.90;14.93;;;9.50;99.90;;;-141.84;100.00;119224.81;4994520;28;20287;-64
2023/10/25 06:12:46;;;;;;;17.50;15.03;;;9.60;99.90;;;-141.84;100.00;119222.75;4993541;28;20203;-64
2023/10/25 06:15:15;;;;;;;19.70;15.63;;;9.60;99.90;;;-141.84;100.00;118956.03;4997991;28;20199;-63
2023/10/25 06:17:43;;;;;;;19.20;14.73;;;9.60;99.90;;;-141.84;100.00;119222.75;4997157;28;20314;-64
2023/10/25 06:20:19;;;;;;;17.83;14.63;;;9.60;99.90;;;-141.84;100.00;119222.75;4998002;28;20203;-63
2023/10/25 06:22:47;;;;;;;17.27;14.37;;;9.60;99.90;;;-141.84;100.00;119224.81;4996478;28;20260;-62
2023/10/25 06:25:16;;;;;;;17.43;13.63;;;9.60;99.90;;;-141.84;100.00;119224.81;4997922;28;20208;-63
2023/10/25 06:27:44;;;;;;;17.37;14.40;;;9.70;99.90;;;-141.84;100.00;119224.81;4994877;28;20199;-62
2023/10/25 06:30:13;;;;;;;15.60;13.87;;;9.80;99.90;;;-141.84;100.00;119224.81;4999530;28;20209;-64
2023/10/25 06:32:41;;;;;;;15.77;13.30;;;9.80;99.90;;;-141.84;100.00;119224.81;4996908;28;20391;-63
2023/10/25 06:35:10;;;;;;;15.40;12.50;;;9.80;99.90;;;-141.84;100.00;119224.81;4996250;28;20202;-64
2023/10/25 06:37:40;;;;;;;14.30;11.23;;;9.90;99.90;;;-141.84;100.00;119224.81;4999912;28;20286;-64
2023/10/25 06:40:10;;;;;;;14.23;10.93;;;10.00;99.90;;;-141.84;100.00;119224.81;5001994;28;20200;-64
2023/10/25 06:42:39;;;;;;;14.33;11.20;;;10.00;99.90;;;-141.84;100.00;119224.81;4994880;28;20702;-63
2023/10/25 06:45:13;;;;;;;14.80;10.73;;;10.10;99.90;;;-141.84;100.00;119224.81;5000795;28;20200;-63
2023/10/25 06:47:43;;;;;;;14.37;10.50;;;10.20;99.90;;;-141.84;100.00;118956.03;4999479;28;20199;-66
2023/10/25 06:50:14;;;;;;;13.73;10.43;;;10.30;99.90;;;-141.84;100.00;118956.03;4997613;28;20577;-64
2023/10/25 06:52:44;;;;;;;14.63;10.83;;;10.30;99.90;;;-141.84;100.00;118956.03;4997849;28;20247;-63
2023/10/25 06:55:15;;;;;;;14.67;10.77;;;10.40;99.90;;;-141.84;100.00;118422.72;4996903;28;20254;-63
2023/10/25 06:57:44;;;;;;;13.07;11.00;;;10.50;99.90;;;-141.84;100.00;117622.84;5003383;28;20230;-63
2023/10/25 07:00:14;;;;;;;14.50;10.07;;;10.50;99.90;;;-141.84;100.00;115757.06;4997618;28;20195;-65
2023/10/25 07:02:51;;;;;;;15.30;11.77;;;10.50;99.90;;;-141.84;100.00;114158.53;4997205;28;20287;-65
2023/10/25 07:05:23;;;;;;;11.37;9.30;;;10.60;99.90;;;-141.84;100.00;111761.88;4997848;28;20257;-64
2023/10/25 07:07:54;;;;;;;13.50;10.10;;;10.50;99.90;;;-141.84;100.00;102455.00;4998543;28;20654;-63
2023/10/25 07:10:24;;;;;;;12.47;10.07;;;10.60;99.90;;;-141.84;100.00;97146.31;4999979;28;20198;-63
2023/10/25 07:12:52;;;;;;;11.57;9.77;;;10.60;99.90;;;-141.84;100.00;95555.09;5003224;28;20195;-64
2023/10/25 07:15:22;;;;;;;11.53;9.53;;;10.70;99.90;;;-141.84;100.00;98472.84;4996921;28;20199;-64
2023/10/25 07:17:51;;;;;;;11.30;9.90;;;10.80;99.90;;;-141.84;100.00;101392.69;4994377;28;20218;-63
2023/10/25 07:20:19;;;;;;;58.00;52.67;;;10.70;99.90;;;-141.84;100.00;102189.38;4996568;28;20211;-64
2023/10/25 07:22:47;;;;;;;17.63;15.73;;;10.80;99.90;;;-141.84;100.00;101392.69;5000615;28;20214;-63
2023/10/25 07:25:17;;;;;;;11.10;9.37;;;10.90;99.90;;;-141.84;100.00;99799.78;4999171;28;20272;-63
2023/10/25 07:27:46;;;;;;;9.50;8.50;;;11.00;99.90;;;-141.84;100.00;93169.38;4994391;28;20204;-63
2023/10/25 07:30:14;;;;;;;10.27;8.50;;;11.10;99.90;;;-141.84;100.00;82583.34;4996761;28;20209;-64
2023/10/25 07:32:42;;;;;;;12.10;9.53;;;11.20;99.90;;;-141.84;100.00;72552.38;4996482;28;20655;-63
2023/10/25 07:35:11;;;;;;;9.50;8.52;;;11.30;99.90;;;-141.84;100.00;68599.69;4995208;28;20200;-63
2023/10/25 07:37:39;;;;;;;9.85;8.40;;;11.30;99.90;;;-141.84;100.00;49157.03;4996662;28;20207;-63
2023/10/25 07:40:09;;;;;;;10.40;9.23;;;11.30;99.90;;;-141.84;100.00;23003.91;4992999;28;20318;-64
2023/10/25 07:42:38;;;;;;;11.93;8.07;;;11.30;99.90;;;-141.84;100.00;17170.63;4993875;28;20283;-63
2023/10/25 07:45:07;;;;;;;9.73;7.33;;;11.50;99.90;;;-141.84;100.00;17936.41;4996473;28;20302;-63
2023/10/25 07:47:36;;;;;;;8.75;7.68;;;11.40;99.90;;;-141.84;100.00;17999.38;4994327;28;20290;-63
2023/10/25 07:50:05;;;;;;;9.88;7.50;;;11.60;99.90;;;-141.84;100.00;16953.34;4997389;28;20200;-64
2023/10/25 07:52:36;;;;;;;7.40;6.70;;;11.70;99.90;;;-141.84;100.00;16910.69;4998374;28;20231;-65
2023/10/25 07:55:05;;;;;;;8.50;7.33;;;11.70;99.90;;;-141.84;100.00;17806.38;4996216;28;20230;-64
2023/10/25 07:57:55;;;;;;;8.00;7.20;;;11.80;99.90;;;-141.84;100.00;17160.47;4993958;28;20211;-65
2023/10/25 08:00:26;;;;;;;8.43;7.47;;;11.80;99.90;;;-141.84;100.00;17414.38;5009663;28;20211;-64
2023/10/25 08:02:54;;;;;;;8.40;7.45;;;11.80;99.90;;;-141.84;100.00;17369.69;4994736;28;20277;-64
2023/10/25 08:05:22;;;;;;;11.90;7.00;;;11.90;99.90;;;-141.84;100.00;17495.59;4995065;28;20208;-65
2023/10/25 08:07:51;;;;;;;9.00;6.93;;;11.90;99.90;;;-141.84;100.00;18332.53;4997781;28;20204;-65
2023/10/25 08:10:19;;;;;;;7.10;6.40;;;11.90;99.90;;;-141.84;100.00;18460.53;4996498;28;20532;-64
2023/10/25 08:12:47;;;;;;;7.70;6.97;;;12.00;99.90;;;-141.84;100.00;17095.50;4999323;28;20203;-65
2023/10/25 08:15:17;;;;;;;7.25;6.00;;;12.00;99.90;;;-141.84;100.00;16949.28;4998084;28;20295;-64
2023/10/25 08:17:46;;;;;;;7.33;6.40;;;12.00;99.90;;;-141.84;100.00;17205.16;4997227;28;20199;-63
2023/10/25 08:20:14;;;;;;;7.13;6.43;;;12.10;99.90;;;-141.84;100.00;17536.22;4998220;28;20224;-64
2023/10/25 08:22:42;;;;;;;7.90;6.20;;;12.10;99.90;;;-141.84;100.00;18048.13;4995963;28;20206;-63
2023/10/25 08:25:10;;;;;;;7.70;6.05;;;12.20;99.90;;;-141.84;100.00;17298.59;4995175;28;20286;-65
2023/10/25 08:27:39;;;;;;;8.38;5.75;;;12.30;99.90;;;-141.84;100.00;17022.38;4996751;28;20298;-62
2023/10/25 08:30:09;;;;;;;6.85;5.03;;;12.30;99.90;;;-141.84;100.00;16969.56;4998129;28;20203;-62
2023/10/25 08:32:39;;;;;;;6.32;5.10;;;12.30;99.90;;;-141.84;100.00;17069.09;4999026;28;20203;-61
2023/10/25 08:35:08;;;;;;;5.65;4.85;;;12.30;99.90;;;-141.84;100.00;17221.41;4998063;28;20223;-62
2023/10/25 08:37:36;;;;;;;5.28;4.78;;;12.40;99.90;;;-141.84;100.00;17392.03;4997220;28;20723;-62
2023/10/25 08:40:09;;;;;;;7.30;5.13;;;12.50;99.90;;;-141.84;100.00;17625.59;4993673;28;20247;-62
2023/10/25 08:42:37;;;;;;;5.72;5.22;;;12.50;99.90;;;-141.84;100.00;17349.38;4990393;28;20962;-62
2023/10/25 08:45:07;;;;;;;5.13;4.63;;;12.50;99.90;;;-141.84;100.00;17203.13;4998406;28;20663;-61
2023/10/25 08:47:36;;;;;;;5.00;4.57;;;12.50;99.90;;;-141.84;100.00;17115.81;4995076;28;20576;-62
2023/10/25 08:50:07;;;;;;;5.85;4.95;;;12.50;99.90;;;-141.84;100.00;17164.53;4996060;28;20295;-62
2023/10/25 08:52:38;;;;;;;6.55;4.70;;;12.50;99.90;;;-141.84;100.00;17316.88;4998830;28;20235;-63
2023/10/25 08:55:10;;;;;;;4.47;4.07;;;12.50;99.90;;;-141.84;100.00;17448.91;4990429;28;20287;-63
2023/10/25 08:57:39;;;;;;;4.18;3.78;;;12.60;99.90;;;-141.84;100.00;17436.72;4998241;28;20206;-63
2023/10/25 09:00:09;;;;;;;4.40;3.97;;;12.60;99.90;;;-141.84;100.00;17995.31;4995543;28;20317;-62
2023/10/25 09:02:38;;;;;;;5.20;4.00;;;12.70;99.90;;;-141.84;100.00;18107.03;4995507;28;20195;-63
2023/10/25 09:05:08;;;;;;;5.72;3.88;;;12.80;99.90;;;-141.84;100.00;18334.56;4998718;28;20202;-63
2023/10/25 09:07:38;;;;;;;3.92;3.53;;;12.90;99.90;;;-141.84;100.00;18212.66;4992067;28;20670;-62
2023/10/25 09:10:15;;;;;;;5.97;4.07;;;13.10;99.90;;;-141.84;98.27;18604.78;4994997;28;20291;-64
2023/10/25 09:12:44;;;;;;;5.30;3.97;;;13.10;99.90;;;-141.84;96.38;18769.34;4996732;28;20203;-62
2023/10/25 09:15:29;;;;;;;5.70;3.60;;;13.20;99.90;;;-141.84;97.60;18667.75;4999559;28;20576;-63
2023/10/25 09:17:57;;;;;;;6.75;3.92;;;13.30;99.90;;;-141.84;99.55;18391.44;4999551;28;20191;-62
2023/10/25 09:20:28;;;;;;;4.97;3.92;;;13.40;99.90;;;-141.84;98.62;18521.47;4999517;28;20222;-63
2023/10/25 09:23:10;;;;;;;4.03;3.38;;;13.40;99.90;;;-141.84;99.11;18474.75;5000317;28;20206;-63
2023/10/25 09:25:39;;;;;;;5.38;4.00;;;13.60;99.90;;;-141.84;99.39;18480.84;4993547;28;20207;-62
2023/10/25 09:28:16;;;;;;;4.57;4.15;;;13.70;99.90;;;-141.84;97.62;18696.19;4998390;28;20257;-63
2023/10/25 09:30:44;;;;;;;5.10;3.75;;;13.70;99.90;;;-141.84;98.51;18572.25;4999960;28;20195;-62
2023/10/25 09:33:12;;;;;;;4.53;4.13;;;13.70;99.90;;;-141.84;99.20;18462.56;4994995;28;20287;-63
2023/10/25 09:35:43;;;;;;;4.90;4.38;;;13.80;99.90;;;-141.84;95.54;18903.44;4995949;28;20214;-62
2023/10/25 09:38:11;;;;;;;5.90;3.80;;;13.70;99.90;;;-141.84;96.51;18775.44;4996606;28;20195;-62
2023/10/25 09:40:43;;;;;;;4.30;3.90;;;13.70;99.90;;;-141.84;98.01;18592.59;4997858;28;20766;-62
2023/10/25 09:43:18;;;;;;;6.82;4.22;;;13.70;99.90;;;-141.84;96.91;18777.47;4993236;28;20691;-63
2023/10/25 09:45:52;;;;;;;4.30;3.90;;;13.70;99.90;;;-141.84;96.20;18812.00;5000729;28;20246;-61
2023/10/25 09:48:22;;;;;;;5.47;4.50;;;13.90;99.90;;;-141.84;95.87;18846.56;4996507;28;20257;-62
2023/10/25 09:51:07;;;;;;;4.03;3.35;;;13.90;99.90;;;-141.84;96.10;18836.41;4995508;28;20262;-61
2023/10/25 09:53:42;;;;;;;4.68;3.83;;;13.90;99.90;;;-141.84;96.47;18753.09;4995319;28;20243;-63
2023/10/25 09:56:12;;;;;;;4.13;3.50;;;13.90;99.90;;;-141.84;94.88;18952.22;4998911;28;20195;-63
2023/10/25 09:58:42;;;;;;;4.85;3.40;;;14.00;99.90;;;-141.84;92.96;19116.81;4997937;28;20234;-62
2023/10/25 10:01:10;;;;;;;4.82;3.10;;;14.00;99.90;;;-141.84;92.28;19153.38;4994845;28;20557;-63